createdAt,value
2017-11-07T00:02:09.813Z,23.27
2017-11-07T00:04:36.639Z,17.10
2017-11-07T00:07:04.005Z,11.53
2017-11-07T00:09:30.776Z,13.30
2017-11-07T00:11:57.797Z,15.40
2017-11-07T00:14:24.480Z,18.90
2017-11-07T00:16:51.448Z,12.50
2017-11-07T00:19:18.191Z,10.73
2017-11-07T00:21:45.038Z,20.73
2017-11-07T00:24:11.834Z,19.10
2017-11-07T00:26:38.668Z,18.00
2017-11-07T00:29:06.074Z,11.27
2017-11-07T00:31:33.014Z,18.57
2017-11-07T00:33:59.583Z,18.53
2017-11-07T00:36:26.793Z,20.33
2017-11-07T00:38:53.408Z,15.83
2017-11-07T00:41:20.135Z,17.50
2017-11-07T00:43:46.988Z,18.30
2017-11-07T00:46:13.598Z,13.37
2017-11-07T00:48:40.395Z,19.47
2017-11-07T00:51:08.731Z,22.83
2017-11-07T00:53:35.456Z,21.83
2017-11-07T00:56:02.154Z,23.90
2017-11-07T00:58:29.507Z,17.37
2017-11-07T01:00:56.528Z,18.50
2017-11-07T01:03:23.521Z,19.03
2017-11-07T01:05:50.365Z,10.80
2017-11-07T01:08:17.096Z,18.40
2017-11-07T01:10:43.722Z,16.63
2017-11-07T01:13:10.435Z,18.30
2017-11-07T01:15:37.271Z,20.30
2017-11-07T01:18:04.247Z,14.90
2017-11-07T01:20:30.944Z,14.50
2017-11-07T01:22:58.490Z,23.03
2017-11-07T01:25:25.241Z,19.60
2017-11-07T01:27:51.994Z,16.07
2017-11-07T01:30:18.844Z,19.73
2017-11-07T01:32:45.600Z,24.80
2017-11-07T01:35:12.263Z,17.30
2017-11-07T01:37:39.720Z,20.37
2017-11-07T01:40:06.227Z,12.83
2017-11-07T01:42:32.819Z,23.10
2017-11-07T01:45:00.102Z,15.57
2017-11-07T01:47:27.793Z,20.67
2017-11-07T01:49:55.619Z,16.50
2017-11-07T01:52:22.325Z,16.63
2017-11-07T01:54:48.948Z,23.17
2017-11-07T01:57:15.720Z,24.80
2017-11-07T01:59:42.421Z,18.97
2017-11-07T02:02:09.458Z,21.27
2017-11-07T02:04:36.783Z,23.40
2017-11-07T02:07:03.520Z,22.00
2017-11-07T02:09:30.302Z,16.80
2017-11-07T02:11:57.291Z,26.30
2017-11-07T02:14:24.403Z,27.00
2017-11-07T02:16:51.183Z,13.10
2017-11-07T02:19:18.181Z,20.90
2017-11-07T02:21:45.830Z,16.50
2017-11-07T02:24:12.883Z,15.70
2017-11-07T02:26:40.011Z,21.63
2017-11-07T02:29:06.752Z,19.20
2017-11-07T02:31:33.955Z,14.90
2017-11-07T02:34:01.677Z,22.10
2017-11-07T02:36:29.979Z,28.27
2017-11-07T02:38:56.709Z,21.63
2017-11-07T02:41:24.304Z,29.87
2017-11-07T02:43:50.964Z,25.20
2017-11-07T02:46:18.253Z,23.90
2017-11-07T02:48:45.682Z,24.57
2017-11-07T02:51:15.644Z,22.40
2017-11-07T02:53:42.355Z,28.07
2017-11-07T02:56:09.046Z,19.23
2017-11-07T02:58:35.858Z,25.77
2017-11-07T03:01:02.852Z,27.10
2017-11-07T03:03:29.507Z,29.30
2017-11-07T03:05:56.032Z,27.10
2017-11-07T03:08:22.804Z,20.67
2017-11-07T03:10:49.718Z,21.83
2017-11-07T03:13:17.051Z,24.10
2017-11-07T03:15:43.641Z,23.87
2017-11-07T03:18:10.165Z,18.20
2017-11-07T03:20:37.881Z,15.53
2017-11-07T03:23:04.611Z,27.33
2017-11-07T03:25:31.360Z,27.77
2017-11-07T03:27:58.112Z,25.33
2017-11-07T03:30:25.349Z,26.13
2017-11-07T03:32:52.745Z,16.37
2017-11-07T03:35:19.775Z,16.60
2017-11-07T03:37:46.364Z,13.83
2017-11-07T03:40:13.692Z,22.20
2017-11-07T03:42:41.261Z,15.00
2017-11-07T03:45:08.115Z,20.47
2017-11-07T03:47:35.535Z,27.47
2017-11-07T03:50:02.179Z,21.23
2017-11-07T03:52:28.826Z,21.80
2017-11-07T03:54:55.657Z,19.30
2017-11-07T03:57:22.508Z,17.77
2017-11-07T03:59:49.061Z,19.77
2017-11-07T04:02:16.028Z,17.97
2017-11-07T04:04:42.756Z,24.20
2017-11-07T04:07:09.343Z,19.53
2017-11-07T04:09:37.063Z,28.67
2017-11-07T04:12:03.853Z,22.00
2017-11-07T04:14:30.437Z,34.37
2017-11-07T04:16:57.011Z,23.20
2017-11-07T04:19:23.717Z,20.20
2017-11-07T04:21:50.430Z,23.43
2017-11-07T04:24:17.002Z,25.30
2017-11-07T04:26:43.640Z,20.10
2017-11-07T04:29:10.304Z,18.50
2017-11-07T04:31:38.158Z,23.20
2017-11-07T04:34:04.777Z,18.17
2017-11-07T04:36:31.500Z,19.80
2017-11-07T04:38:58.129Z,28.60
2017-11-07T04:41:24.745Z,22.73
2017-11-07T04:43:51.511Z,24.17
2017-11-07T04:46:19.132Z,27.23
2017-11-07T04:48:46.246Z,33.43
2017-11-07T04:51:13.020Z,26.67
2017-11-07T04:53:39.757Z,28.87
2017-11-07T04:56:07.282Z,26.80
2017-11-07T04:58:34.178Z,40.87
2017-11-07T05:01:01.167Z,34.90
2017-11-07T05:03:28.020Z,29.80
2017-11-07T05:05:55.202Z,26.70
2017-11-07T05:08:22.442Z,24.20
2017-11-07T05:10:49.236Z,33.67
2017-11-07T05:13:16.067Z,24.40
2017-11-07T05:15:42.814Z,27.60
2017-11-07T05:18:09.515Z,26.37
2017-11-07T05:20:36.904Z,24.20
2017-11-07T05:23:04.129Z,33.17
2017-11-07T05:25:30.816Z,24.20
2017-11-07T05:27:57.589Z,27.73
2017-11-07T05:30:24.479Z,19.57
2017-11-07T05:32:51.959Z,26.80
2017-11-07T05:35:18.568Z,29.63
2017-11-07T05:37:46.036Z,24.60
2017-11-07T05:40:12.811Z,24.73
2017-11-07T05:42:40.605Z,23.13
2017-11-07T05:45:07.892Z,23.80
2017-11-07T05:47:34.415Z,22.03
2017-11-07T05:50:01.173Z,27.30
2017-11-07T05:52:28.046Z,22.70
2017-11-07T05:54:54.968Z,25.03
2017-11-07T05:57:22.925Z,32.07
2017-11-07T05:59:49.718Z,22.07
2017-11-07T06:02:16.552Z,23.37
2017-11-07T06:04:43.970Z,20.07
2017-11-07T06:07:10.952Z,27.43
2017-11-07T06:09:37.471Z,22.97
2017-11-07T06:12:04.042Z,21.53
2017-11-07T06:14:30.866Z,26.30
2017-11-07T06:16:57.665Z,28.10
2017-11-07T06:19:24.364Z,34.30
2017-11-07T06:21:51.150Z,34.20
2017-11-07T06:24:18.222Z,24.67
2017-11-07T06:26:44.976Z,28.67
2017-11-07T06:29:11.743Z,26.63
2017-11-07T06:31:38.363Z,26.10
2017-11-07T06:34:05.236Z,22.03
2017-11-07T06:36:32.021Z,23.30
2017-11-07T06:38:58.543Z,26.90
2017-11-07T06:41:25.269Z,26.03
2017-11-07T06:43:51.906Z,24.20
2017-11-07T06:46:18.652Z,31.53
2017-11-07T06:48:45.268Z,25.73
2017-11-07T06:51:11.922Z,24.53
2017-11-07T06:53:38.520Z,26.10
2017-11-07T06:56:05.233Z,25.00
2017-11-07T06:58:32.964Z,25.87
2017-11-07T07:00:59.663Z,29.90
2017-11-07T07:03:26.380Z,26.13
2017-11-07T07:05:52.934Z,33.63
2017-11-07T07:08:19.668Z,33.93
2017-11-07T07:10:46.213Z,27.87
2017-11-07T07:13:12.840Z,29.37
2017-11-07T07:15:39.452Z,26.37
2017-11-07T07:18:06.108Z,36.27
2017-11-07T07:20:32.666Z,41.27
2017-11-07T07:22:59.455Z,46.10
2017-11-07T07:25:26.685Z,58.77
2017-11-07T07:27:53.274Z,40.70
2017-11-07T07:30:20.199Z,54.53
2017-11-07T07:32:46.804Z,51.60
2017-11-07T07:35:13.670Z,44.53
2017-11-07T07:37:41.359Z,47.80
2017-11-07T07:40:08.345Z,51.03
2017-11-07T07:42:34.943Z,48.07
2017-11-07T07:45:01.862Z,53.80
2017-11-07T07:47:28.505Z,45.33
2017-11-07T07:49:55.237Z,48.10
2017-11-07T07:52:21.774Z,55.80
2017-11-07T07:54:48.349Z,66.10
2017-11-07T07:57:15.052Z,73.00
2017-11-07T07:59:41.762Z,92.90
2017-11-07T08:02:08.427Z,62.93
2017-11-07T08:04:35.238Z,68.77
2017-11-07T08:07:02.033Z,85.50
2017-11-07T08:09:29.546Z,77.50
2017-11-07T08:11:56.452Z,68.33
2017-11-07T08:14:23.266Z,72.87
2017-11-07T08:16:49.852Z,60.17
2017-11-07T08:19:16.572Z,79.73
2017-11-07T08:21:43.469Z,61.57
2017-11-07T08:24:10.157Z,65.57
2017-11-07T08:26:37.408Z,60.87
2017-11-07T08:29:04.164Z,62.33
2017-11-07T08:31:30.990Z,59.47
2017-11-07T08:33:57.829Z,52.13
2017-11-07T08:36:24.761Z,62.57
2017-11-07T08:38:51.482Z,48.33
2017-11-07T08:41:18.351Z,43.37
2017-11-07T08:43:45.132Z,50.13
2017-11-07T08:46:11.941Z,32.63
2017-11-07T08:48:38.480Z,36.27
2017-11-07T08:51:05.207Z,33.80
2017-11-07T08:53:32.070Z,32.27
2017-11-07T08:55:58.814Z,44.97
2017-11-07T08:58:25.661Z,35.00
2017-11-07T09:00:52.260Z,25.93
2017-11-07T09:03:19.010Z,32.07
2017-11-07T09:05:45.828Z,27.10
2017-11-07T09:08:12.680Z,26.63
2017-11-07T09:10:39.243Z,36.67
2017-11-07T09:13:06.040Z,31.47
2017-11-07T09:15:32.976Z,32.73
2017-11-07T09:17:59.590Z,23.73
2017-11-07T09:20:26.485Z,33.07
2017-11-07T09:22:54.083Z,29.03
2017-11-07T09:25:20.797Z,30.07
2017-11-07T09:27:48.454Z,37.67
2017-11-07T09:30:15.116Z,24.30
2017-11-07T09:32:41.934Z,22.97
2017-11-07T09:35:08.740Z,32.67
2017-11-07T09:37:36.599Z,31.03
2017-11-07T09:40:04.102Z,32.43
2017-11-07T09:42:30.832Z,31.07
2017-11-07T09:44:57.745Z,28.07
2017-11-07T09:47:24.414Z,30.37
2017-11-07T09:49:52.000Z,27.43
2017-11-07T09:52:18.533Z,25.33
2017-11-07T09:54:46.078Z,27.10
2017-11-07T09:57:12.885Z,27.00
2017-11-07T09:59:40.612Z,19.73
2017-11-07T10:02:07.522Z,23.13
2017-11-07T10:04:34.218Z,17.63
2017-11-07T10:07:01.893Z,31.30
2017-11-07T10:09:28.689Z,17.57
2017-11-07T10:11:55.663Z,15.33
2017-11-07T10:14:22.363Z,19.17
2017-11-07T10:16:49.087Z,22.23
2017-11-07T10:19:15.867Z,21.43
2017-11-07T10:21:42.732Z,27.83
2017-11-07T10:24:09.788Z,17.10
2017-11-07T10:26:36.518Z,21.33
2017-11-07T10:29:04.115Z,17.47
2017-11-07T10:31:31.429Z,15.30
2017-11-07T10:33:59.052Z,14.43
2017-11-07T10:36:25.972Z,11.60
2017-11-07T10:38:52.636Z,11.47
2017-11-07T10:41:19.489Z,17.13
2017-11-07T10:43:46.691Z,20.40
2017-11-07T10:46:15.859Z,25.50
2017-11-07T10:48:43.679Z,16.07
2017-11-07T10:51:10.451Z,21.07
2017-11-07T10:53:37.176Z,17.93
2017-11-07T10:56:04.177Z,18.93
2017-11-07T10:58:31.013Z,11.07
2017-11-07T11:00:57.889Z,15.03
2017-11-07T11:03:24.633Z,20.37
2017-11-07T11:05:51.621Z,12.83
2017-11-07T11:08:19.788Z,14.87
2017-11-07T11:10:46.452Z,15.60
2017-11-07T11:13:13.453Z,8.70
2017-11-07T11:15:40.722Z,9.87
2017-11-07T11:18:08.880Z,22.17
2017-11-07T11:20:35.592Z,16.10
2017-11-07T11:23:03.336Z,13.90
2017-11-07T11:25:30.315Z,14.00
2017-11-07T11:27:57.191Z,16.57
2017-11-07T11:30:24.090Z,11.33
2017-11-07T11:32:51.405Z,6.10
2017-11-07T11:35:18.329Z,11.30
2017-11-07T11:37:45.761Z,7.03
2017-11-07T11:40:12.646Z,11.20
2017-11-07T11:42:39.314Z,4.33
2017-11-07T11:45:06.146Z,15.57
2017-11-07T11:47:34.331Z,6.93
2017-11-07T11:50:03.136Z,5.87
2017-11-07T11:52:30.164Z,8.90
2017-11-07T11:54:56.646Z,8.40
2017-11-07T11:57:23.540Z,9.20
2017-11-07T11:59:51.150Z,12.93
2017-11-07T12:02:17.936Z,16.17
2017-11-07T12:04:44.532Z,5.90
2017-11-07T12:07:11.471Z,17.23
2017-11-07T12:09:38.490Z,10.33
2017-11-07T12:12:05.795Z,8.73
2017-11-07T12:14:32.833Z,9.73
2017-11-07T12:17:03.653Z,13.63
2017-11-07T12:19:31.090Z,4.20
2017-11-07T12:21:58.026Z,6.57
2017-11-07T12:24:24.969Z,9.77
2017-11-07T12:26:51.980Z,10.20
2017-11-07T12:29:18.701Z,8.20
2017-11-07T12:31:46.384Z,9.17
2017-11-07T12:34:13.186Z,8.50
2017-11-07T12:36:40.025Z,9.63
2017-11-07T12:39:07.100Z,18.97
2017-11-07T12:41:34.174Z,6.97
2017-11-07T12:44:01.080Z,6.73
2017-11-07T12:46:28.224Z,12.27
2017-11-07T12:48:55.227Z,10.90
2017-11-07T12:51:34.340Z,8.73
2017-11-07T12:54:01.914Z,8.20
2017-11-07T12:56:28.673Z,11.53
2017-11-07T12:58:56.689Z,6.07
2017-11-07T13:01:23.675Z,8.83
2017-11-07T13:03:50.850Z,15.73
2017-11-07T13:06:17.573Z,8.13
2017-11-07T13:08:44.388Z,11.03
2017-11-07T13:11:11.037Z,6.73
2017-11-07T13:13:37.892Z,20.23
2017-11-07T13:16:04.602Z,12.63
2017-11-07T13:18:31.198Z,29.23
2017-11-07T13:20:57.934Z,13.00
2017-11-07T13:23:24.698Z,16.93
2017-11-07T13:25:51.646Z,17.03
2017-11-07T13:28:18.360Z,7.10
2017-11-07T13:30:45.152Z,11.27
2017-11-07T13:33:12.040Z,12.90
2017-11-07T13:35:38.807Z,11.73
2017-11-07T13:38:05.520Z,12.57
2017-11-07T13:40:32.205Z,10.77
2017-11-07T13:42:59.096Z,7.07
2017-11-07T13:45:25.748Z,13.27
2017-11-07T13:47:52.404Z,11.70
2017-11-07T13:50:19.006Z,12.00
2017-11-07T13:52:45.818Z,13.37
2017-11-07T13:55:12.602Z,17.07
2017-11-07T13:57:40.214Z,6.80
2017-11-07T14:00:06.989Z,7.80
2017-11-07T14:02:33.838Z,8.73
2017-11-07T14:05:01.765Z,21.60
2017-11-07T14:07:28.468Z,13.43
2017-11-07T14:09:55.614Z,19.13
2017-11-07T14:12:22.637Z,4.70
2017-11-07T14:14:52.523Z,17.03
2017-11-07T14:17:20.492Z,7.93
2017-11-07T14:19:47.436Z,9.20
2017-11-07T14:22:15.374Z,9.90
2017-11-07T14:24:42.635Z,7.73
2017-11-07T14:27:09.336Z,10.00
2017-11-07T14:29:37.396Z,19.33
2017-11-07T14:32:04.461Z,16.57
2017-11-07T14:34:31.359Z,12.63
2017-11-07T14:36:58.296Z,12.70
2017-11-07T14:39:25.039Z,9.13
2017-11-07T14:41:52.417Z,9.53
2017-11-07T14:44:19.912Z,9.20
2017-11-07T14:46:46.942Z,23.90
2017-11-07T14:49:14.635Z,11.10
2017-11-07T14:51:42.609Z,10.70
2017-11-07T14:54:10.436Z,11.90
2017-11-07T14:56:39.816Z,12.80
2017-11-07T14:59:06.560Z,7.83
2017-11-07T15:01:33.559Z,5.73
2017-11-07T15:04:01.340Z,9.23
2017-11-07T15:06:28.173Z,8.20
2017-11-07T15:08:55.029Z,14.50
2017-11-07T15:11:22.664Z,14.57
2017-11-07T15:13:50.589Z,10.67
2017-11-07T15:16:18.384Z,12.77
2017-11-07T15:18:45.743Z,22.07
2017-11-07T15:21:14.958Z,5.83
2017-11-07T15:23:42.103Z,8.43
2017-11-07T15:26:09.006Z,9.20
2017-11-07T15:28:35.634Z,11.70
2017-11-07T15:31:02.645Z,22.87
2017-11-07T15:33:29.773Z,15.73
2017-11-07T15:35:56.620Z,8.90
2017-11-07T15:38:24.932Z,18.50
2017-11-07T15:40:51.719Z,18.50
2017-11-07T15:43:18.519Z,17.83
2017-11-07T15:45:46.075Z,14.93
2017-11-07T15:48:12.831Z,14.37
2017-11-07T15:50:39.486Z,11.57
2017-11-07T15:53:06.299Z,10.47
2017-11-07T15:55:33.090Z,21.03
2017-11-07T15:58:00.528Z,13.63
2017-11-07T16:00:28.253Z,9.00
2017-11-07T16:02:55.462Z,20.50
2017-11-07T16:05:22.185Z,18.47
2017-11-07T16:07:48.783Z,16.83
2017-11-07T16:10:15.488Z,19.33
2017-11-07T16:12:42.124Z,12.07
2017-11-07T16:15:08.882Z,10.97
2017-11-07T16:17:35.948Z,16.30
2017-11-07T16:20:02.787Z,16.10
2017-11-07T16:22:29.550Z,15.23
2017-11-07T16:24:56.337Z,15.57
2017-11-07T16:27:23.757Z,12.30
2017-11-07T16:29:50.973Z,11.50
2017-11-07T16:32:18.573Z,14.63
2017-11-07T16:34:45.519Z,11.10
2017-11-07T16:37:12.548Z,11.03
2017-11-07T16:39:39.688Z,9.80
2017-11-07T16:42:06.602Z,20.67
2017-11-07T16:44:34.335Z,12.90
2017-11-07T16:47:01.222Z,17.33
2017-11-07T16:49:27.939Z,12.43
2017-11-07T16:51:54.961Z,18.77
2017-11-07T16:54:21.930Z,12.97
2017-11-07T16:56:48.731Z,25.93
2017-11-07T16:59:15.230Z,13.80
2017-11-07T17:01:42.380Z,13.80
2017-11-07T17:04:09.830Z,18.13
2017-11-07T17:06:37.274Z,13.93
2017-11-07T17:09:04.281Z,13.87
2017-11-07T17:11:31.141Z,13.23
2017-11-07T17:13:57.748Z,16.13
2017-11-07T17:16:24.720Z,27.57
2017-11-07T17:18:51.560Z,21.83
2017-11-07T17:21:18.428Z,16.00
2017-11-07T17:23:45.182Z,17.73
2017-11-07T17:26:11.861Z,22.73
2017-11-07T17:28:38.725Z,23.60
2017-11-07T17:31:05.552Z,21.57
2017-11-07T17:33:32.306Z,22.40
2017-11-07T17:35:59.051Z,20.83
2017-11-07T17:38:26.296Z,24.40
2017-11-07T17:40:52.909Z,25.27
2017-11-07T17:43:20.340Z,23.03
2017-11-07T17:45:47.392Z,15.90
2017-11-07T17:48:14.088Z,21.80
2017-11-07T17:50:41.064Z,13.60
2017-11-07T17:53:07.817Z,15.13
2017-11-07T17:55:34.324Z,14.37
2017-11-07T17:58:01.400Z,24.17
2017-11-07T18:00:28.141Z,22.40
2017-11-07T18:02:56.221Z,14.90
2017-11-07T18:05:22.955Z,13.33
2017-11-07T18:07:49.695Z,14.83
2017-11-07T18:10:17.969Z,27.70
2017-11-07T18:12:45.126Z,21.43
2017-11-07T18:15:11.977Z,12.33
2017-11-07T18:17:38.934Z,14.13
2017-11-07T18:20:05.860Z,15.50
2017-11-07T18:22:33.470Z,13.93
2017-11-07T18:25:00.171Z,24.10
2017-11-07T18:27:26.898Z,13.87
2017-11-07T18:29:53.674Z,21.17
2017-11-07T18:32:21.138Z,19.83
2017-11-07T18:34:47.809Z,19.23
2017-11-07T18:37:14.944Z,28.20
2017-11-07T18:39:42.544Z,22.70
2017-11-07T18:42:09.395Z,19.47
2017-11-07T18:44:36.000Z,33.43
2017-11-07T18:47:06.648Z,16.77
2017-11-07T18:49:33.296Z,12.23
2017-11-07T18:52:00.643Z,19.33
2017-11-07T18:54:29.234Z,17.00
2017-11-07T18:56:58.621Z,21.97
2017-11-07T18:59:26.985Z,17.97
2017-11-07T19:01:53.569Z,18.70
2017-11-07T19:04:20.691Z,14.77
2017-11-07T19:06:47.874Z,25.67
2017-11-07T19:09:14.866Z,13.23
2017-11-07T19:11:41.584Z,19.73
2017-11-07T19:14:08.902Z,26.70
2017-11-07T19:16:35.898Z,17.53
2017-11-07T19:19:02.901Z,21.57
2017-11-07T19:21:30.074Z,16.23
2017-11-07T19:23:57.319Z,19.30
2017-11-07T19:26:24.558Z,17.90
2017-11-07T19:28:51.593Z,14.57
2017-11-07T19:31:18.783Z,29.33
2017-11-07T19:33:45.505Z,11.03
2017-11-07T19:36:12.456Z,19.83
2017-11-07T19:38:40.468Z,30.87
2017-11-07T19:41:07.161Z,15.57
2017-11-07T19:43:34.118Z,15.77
2017-11-07T19:46:02.053Z,18.90
2017-11-07T19:48:30.311Z,14.73
2017-11-07T19:50:57.753Z,29.97
2017-11-07T19:53:24.635Z,16.27
2017-11-07T19:55:52.212Z,18.00
2017-11-07T19:58:19.346Z,14.23
2017-11-07T20:00:46.457Z,23.13
2017-11-07T20:03:13.849Z,30.03
2017-11-07T20:05:40.932Z,17.67
2017-11-07T20:08:07.530Z,16.83
2017-11-07T20:10:34.156Z,14.47
2017-11-07T20:13:00.886Z,17.07
2017-11-07T20:15:27.505Z,29.57
2017-11-07T20:17:54.387Z,17.97
2017-11-07T20:20:21.098Z,20.17
2017-11-07T20:22:47.855Z,33.07
2017-11-07T20:25:14.580Z,19.77
2017-11-07T20:27:41.447Z,20.57
2017-11-07T20:30:08.340Z,14.77
2017-11-07T20:32:35.920Z,21.80
2017-11-07T20:35:03.646Z,14.73
2017-11-07T20:37:30.640Z,12.53
2017-11-07T20:39:58.320Z,15.67
2017-11-07T20:42:25.212Z,15.60
2017-11-07T20:44:51.951Z,27.10
2017-11-07T20:47:18.575Z,31.90
2017-11-07T20:49:45.339Z,24.13
2017-11-07T20:52:13.247Z,22.33
2017-11-07T20:54:40.061Z,29.70
2017-11-07T20:57:07.708Z,32.73
2017-11-07T20:59:35.740Z,15.03
2017-11-07T21:02:02.641Z,27.63
2017-11-07T21:04:29.412Z,14.90
2017-11-07T21:06:56.308Z,17.07
2017-11-07T21:09:24.099Z,11.97
2017-11-07T21:11:50.952Z,14.20
2017-11-07T21:14:18.017Z,20.37
2017-11-07T21:16:45.004Z,18.00
2017-11-07T21:19:13.589Z,17.40
2017-11-07T21:21:41.729Z,25.20
2017-11-07T21:24:08.799Z,18.13
2017-11-07T21:26:35.803Z,17.60
2017-11-07T21:29:02.651Z,12.73
2017-11-07T21:31:29.564Z,13.23
2017-11-07T21:33:56.445Z,16.03
2017-11-07T21:36:23.139Z,19.93
2017-11-07T21:38:49.747Z,5.00
2017-11-07T21:41:16.708Z,13.20
2017-11-07T21:43:43.863Z,15.63
2017-11-07T21:46:11.315Z,13.53
2017-11-07T21:48:38.436Z,12.67
2017-11-07T21:51:05.441Z,19.13
2017-11-07T21:53:32.286Z,23.40
2017-11-07T21:55:59.840Z,18.00
2017-11-07T21:58:27.190Z,12.10
2017-11-07T22:00:54.252Z,15.60
2017-11-07T22:03:21.285Z,11.63
2017-11-07T22:05:48.119Z,12.60
2017-11-07T22:08:15.281Z,13.13
2017-11-07T22:10:45.040Z,13.20
2017-11-07T22:13:12.416Z,13.93
2017-11-07T22:15:41.299Z,14.50
2017-11-07T22:18:10.032Z,8.07
2017-11-07T22:20:38.899Z,9.73
2017-11-07T22:23:26.631Z,11.90
2017-11-07T22:25:53.256Z,14.13
2017-11-07T22:28:19.898Z,27.40
2017-11-07T22:30:46.632Z,9.40
2017-11-07T22:33:14.543Z,18.20
2017-11-07T22:35:41.204Z,10.23
2017-11-07T22:38:07.869Z,9.10
2017-11-07T22:40:34.678Z,13.40
2017-11-07T22:43:01.323Z,13.50
2017-11-07T22:45:29.702Z,16.53
2017-11-07T22:47:57.442Z,8.90
2017-11-07T22:50:24.258Z,9.57
2017-11-07T22:52:50.998Z,22.43
2017-11-07T22:55:18.538Z,15.00
2017-11-07T22:57:45.266Z,9.60
2017-11-07T23:00:11.983Z,9.97
2017-11-07T23:02:39.122Z,5.40
2017-11-07T23:05:05.978Z,11.67
2017-11-07T23:07:32.669Z,9.83
2017-11-07T23:09:59.543Z,15.43
2017-11-07T23:12:26.325Z,16.90
2017-11-07T23:14:52.980Z,18.87
2017-11-07T23:17:19.796Z,6.20
2017-11-07T23:19:46.411Z,13.63
2017-11-07T23:22:15.468Z,12.97
2017-11-07T23:24:42.462Z,7.03
2017-11-07T23:27:09.750Z,13.03
2017-11-07T23:29:36.657Z,6.50
2017-11-07T23:32:04.569Z,11.57
2017-11-07T23:34:33.119Z,17.10
2017-11-07T23:37:00.159Z,9.77
2017-11-07T23:39:27.052Z,15.43
2017-11-07T23:41:54.022Z,10.20
2017-11-07T23:44:22.114Z,10.30
2017-11-07T23:46:50.174Z,12.80
2017-11-07T23:49:17.651Z,10.53
2017-11-07T23:51:45.800Z,14.13
2017-11-07T23:54:14.654Z,12.20
2017-11-07T23:56:42.214Z,10.03
2017-11-07T23:59:12.445Z,7.43
